sensor_id;sensor_type;location;lat;lon;timestamp;pressure;altitude;pressure_sealevel;temperature;humidity
47670;BME280;33408;52.062;11.722;2023-04-08T00:00:21;101748.81;;;5.01;100.00
47670;BME280;33408;52.062;11.722;2023-04-08T00:02:48;101756.63;;;5.06;100.00
47670;BME280;33408;52.062;11.722;2023-04-08T00:05:14;101763.25;;;4.95;100.00
47670;BME280;33408;52.062;11.722;2023-04-08T00:07:41;101762.03;;;5.20;100.00
47670;BME280;33408;52.062;11.722;2023-04-08T00:10:08;101756.19;;;5.27;100.00
47670;BME280;33408;52.062;11.722;2023-04-08T00:12:37;101753.41;;;5.16;100.00
47670;BME280;33408;52.062;11.722;2023-04-08T00:15:04;101744.91;;;5.19;100.00
47670;BME280;33408;52.062;11.722;2023-04-08T00:17:31;101748.16;;;5.11;100.00
47670;BME280;33408;52.062;11.722;2023-04-08T00:19:57;101748.09;;;5.08;100.00
47670;BME280;33408;52.062;11.722;2023-04-08T00:22:24;101742.78;;;4.99;100.00
47670;BME280;33408;52.062;11.722;2023-04-08T00:24:51;101744.84;;;5.16;100.00
47670;BME280;33408;52.062;11.722;2023-04-08T00:27:17;101743.81;;;5.07;100.00
47670;BME280;33408;52.062;11.722;2023-04-08T00:29:45;101753.16;;;5.04;100.00
47670;BME280;33408;52.062;11.722;2023-04-08T00:32:12;101748.41;;;5.22;100.00
47670;BME280;33408;52.062;11.722;2023-04-08T00:34:39;101748.28;;;5.18;100.00
47670;BME280;33408;52.062;11.722;2023-04-08T00:37:05;101750.53;;;5.02;100.00
47670;BME280;33408;52.062;11.722;2023-04-08T00:39:32;101748.41;;;5.22;100.00
47670;BME280;33408;52.062;11.722;2023-04-08T00:41:59;101743.16;;;5.18;100.00
47670;BME280;33408;52.062;11.722;2023-04-08T00:44:26;101743.94;;;5.14;100.00
47670;BME280;33408;52.062;11.722;2023-04-08T00:46:54;101748.75;;;4.98;100.00
47670;BME280;33408;52.062;11.722;2023-04-08T00:49:20;101751.47;;;5.04;100.00
47670;BME280;33408;52.062;11.722;2023-04-08T00:51:47;101747.00;;;4.97;100.00
47670;BME280;33408;52.062;11.722;2023-04-08T00:54:14;101757.50;;;5.06;100.00
47670;BME280;33408;52.062;11.722;2023-04-08T00:56:42;101751.94;;;4.86;100.00
47670;BME280;33408;52.062;11.722;2023-04-08T00:59:09;101751.22;;;4.93;100.00
47670;BME280;33408;52.062;11.722;2023-04-08T01:01:42;101749.00;;;5.09;100.00
47670;BME280;33408;52.062;11.722;2023-04-08T01:04:12;101747.22;;;5.06;100.00
47670;BME280;33408;52.062;11.722;2023-04-08T01:06:48;101753.31;;;5.11;100.00
47670;BME280;33408;52.062;11.722;2023-04-08T01:09:18;101752.16;;;4.97;100.00
47670;BME280;33408;52.062;11.722;2023-04-08T01:11:49;101754.88;;;5.05;100.00
47670;BME280;33408;52.062;11.722;2023-04-08T01:14:20;101756.97;;;4.82;100.00
47670;BME280;33408;52.062;11.722;2023-04-08T01:16:47;101754.38;;;4.80;100.00
47670;BME280;33408;52.062;11.722;2023-04-08T01:19:19;101752.75;;;4.84;100.00
47670;BME280;33408;52.062;11.722;2023-04-08T01:21:48;101753.63;;;4.86;100.00
47670;BME280;33408;52.062;11.722;2023-04-08T01:24:19;101752.88;;;4.90;100.00
47670;BME280;33408;52.062;11.722;2023-04-08T01:26:50;101752.94;;;4.93;100.00
47670;BME280;33408;52.062;11.722;2023-04-08T01:29:17;101753.75;;;4.92;100.00
47670;BME280;33408;52.062;11.722;2023-04-08T01:31:45;101752.91;;;4.91;100.00
47670;BME280;33408;52.062;11.722;2023-04-08T01:34:12;101758.44;;;4.70;100.00
47670;BME280;33408;52.062;11.722;2023-04-08T01:36:43;101762.25;;;4.88;100.00
47670;BME280;33408;52.062;11.722;2023-04-08T01:39:10;101758.81;;;4.87;100.00
47670;BME280;33408;52.062;11.722;2023-04-08T01:41:38;101754.84;;;5.03;100.00
47670;BME280;33408;52.062;11.722;2023-04-08T01:44:07;101758.00;;;4.90;100.00
47670;BME280;33408;52.062;11.722;2023-04-08T01:46:34;101757.09;;;4.86;100.00
47670;BME280;33408;52.062;11.722;2023-04-08T01:49:02;101766.44;;;4.84;100.00
47670;BME280;33408;52.062;11.722;2023-04-08T01:51:31;101768.22;;;4.87;100.00
47670;BME280;33408;52.062;11.722;2023-04-08T01:53:59;101762.16;;;4.83;100.00
47670;BME280;33408;52.062;11.722;2023-04-08T01:56:28;101762.09;;;4.80;100.00
47670;BME280;33408;52.062;11.722;2023-04-08T01:58:57;101758.41;;;5.10;100.00
47670;BME280;33408;52.062;11.722;2023-04-08T02:01:28;101755.41;;;4.88;100.00
47670;BME280;33408;52.062;11.722;2023-04-08T02:03:56;101758.91;;;4.92;100.00
47670;BME280;33408;52.062;11.722;2023-04-08T02:06:25;101760.44;;;4.84;100.00
47670;BME280;33408;52.062;11.722;2023-04-08T02:08:53;101760.66;;;4.93;100.00
47670;BME280;33408;52.062;11.722;2023-04-08T02:11:20;101750.16;;;4.84;100.00
47670;BME280;33408;52.062;11.722;2023-04-08T02:13:47;101750.16;;;4.84;100.00
47670;BME280;33408;52.062;11.722;2023-04-08T02:16:17;101749.47;;;4.92;100.00
47670;BME280;33408;52.062;11.722;2023-04-08T02:18:54;101745.91;;;4.86;100.00
47670;BME280;33408;52.062;11.722;2023-04-08T02:21:26;101748.50;;;4.86;100.00
47670;BME280;33408;52.062;11.722;2023-04-08T02:23:58;101751.13;;;4.89;100.00
47670;BME280;33408;52.062;11.722;2023-04-08T02:26:25;101747.56;;;4.82;100.00
47670;BME280;33408;52.062;11.722;2023-04-08T02:28:54;101753.63;;;4.86;100.00
47670;BME280;33408;52.062;11.722;2023-04-08T02:31:21;101747.91;;;4.98;100.00
47670;BME280;33408;52.062;11.722;2023-04-08T02:33:50;101759.72;;;4.91;100.00
47670;BME280;33408;52.062;11.722;2023-04-08T02:36:18;101762.28;;;4.91;100.00
47670;BME280;33408;52.062;11.722;2023-04-08T02:38:46;101766.03;;;5.05;100.00
47670;BME280;33408;52.062;11.722;2023-04-08T02:41:13;101757.28;;;4.97;100.00
47670;BME280;33408;52.062;11.722;2023-04-08T02:43:40;101770.84;;;4.90;100.00
47670;BME280;33408;52.062;11.722;2023-04-08T02:46:10;101759.75;;;4.92;100.00
47670;BME280;33408;52.062;11.722;2023-04-08T02:48:36;101770.00;;;4.91;100.00
47670;BME280;33408;52.062;11.722;2023-04-08T02:51:04;101766.09;;;5.08;100.00
47670;BME280;33408;52.062;11.722;2023-04-08T02:53:31;101761.13;;;5.16;100.00
47670;BME280;33408;52.062;11.722;2023-04-08T02:55:57;101774.09;;;5.22;100.00
47670;BME280;33408;52.062;11.722;2023-04-08T02:58:24;101771.53;;;5.22;100.00
47670;BME280;33408;52.062;11.722;2023-04-08T03:00:51;101776.19;;;5.42;100.00
47670;BME280;33408;52.062;11.722;2023-04-08T03:03:17;101777.31;;;5.12;100.00
47670;BME280;33408;52.062;11.722;2023-04-08T03:05:44;101777.38;;;5.15;100.00
47670;BME280;33408;52.062;11.722;2023-04-08T03:08:12;101782.56;;;5.18;100.00
47670;BME280;33408;52.062;11.722;2023-04-08T03:10:39;101777.25;;;5.09;100.00
47670;BME280;33408;52.062;11.722;2023-04-08T03:13:05;101775.56;;;5.09;100.00
47670;BME280;33408;52.062;11.722;2023-04-08T03:15:32;101775.78;;;5.20;100.00
47670;BME280;33408;52.062;11.722;2023-04-08T03:17:59;101774.84;;;5.18;100.00
47670;BME280;33408;52.062;11.722;2023-04-08T03:20:25;101773.13;;;5.16;100.00
47670;BME280;33408;52.062;11.722;2023-04-08T03:22:52;101775.03;;;5.26;100.00
47670;BME280;33408;52.062;11.722;2023-04-08T03:25:20;101774.09;;;5.22;100.00
47670;BME280;33408;52.062;11.722;2023-04-08T03:27:46;101773.25;;;5.22;100.00
47670;BME280;33408;52.062;11.722;2023-04-08T03:30:13;101769.47;;;5.06;100.00
47670;BME280;33408;52.062;11.722;2023-04-08T03:32:39;101775.75;;;5.19;100.00
47670;BME280;33408;52.062;11.722;2023-04-08T03:35:07;101769.06;;;5.27;100.00
47670;BME280;33408;52.062;11.722;2023-04-08T03:37:33;101773.13;;;5.16;100.00
47670;BME280;33408;52.062;11.722;2023-04-08T03:40:00;101774.00;;;5.18;100.00
47670;BME280;33408;52.062;11.722;2023-04-08T03:42:28;101768.63;;;5.07;100.00
47670;BME280;33408;52.062;11.722;2023-04-08T03:44:55;101772.91;;;5.06;100.00
47670;BME280;33408;52.062;11.722;2023-04-08T03:47:22;101784.59;;;4.92;100.00
47670;BME280;33408;52.062;11.722;2023-04-08T03:49:51;101775.56;;;5.09;100.00
47670;BME280;33408;52.062;11.722;2023-04-08T03:52:18;101783.97;;;5.04;100.00
47670;BME280;33408;52.062;11.722;2023-04-08T03:54:45;101789.09;;;5.01;100.00
47670;BME280;33408;52.062;11.722;2023-04-08T03:57:11;101778.78;;;4.99;100.00
47670;BME280;33408;52.062;11.722;2023-04-08T03:59:39;101791.50;;;4.95;100.00
47670;BME280;33408;52.062;11.722;2023-04-08T04:02:06;101787.72;;;5.18;100.00
47670;BME280;33408;52.062;11.722;2023-04-08T04:04:33;101790.19;;;5.12;100.00
47670;BME280;33408;52.062;11.722;2023-04-08T04:07:01;101797.00;;;5.11;100.00
47670;BME280;33408;52.062;11.722;2023-04-08T04:09:27;101803.41;;;4.91;100.00
47670;BME280;33408;52.062;11.722;2023-04-08T04:11:54;101794.41;;;5.10;100.00
47670;BME280;33408;52.062;11.722;2023-04-08T04:14:20;101796.91;;;5.07;100.00
47670;BME280;33408;52.062;11.722;2023-04-08T04:16:48;101787.53;;;5.09;100.00
47670;BME280;33408;52.062;11.722;2023-04-08T04:19:15;101795.88;;;4.99;100.00
47670;BME280;33408;52.062;11.722;2023-04-08T04:21:42;101797.53;;;4.97;100.00
47670;BME280;33408;52.062;11.722;2023-04-08T04:24:09;101801.88;;;4.98;100.00
47670;BME280;33408;52.062;11.722;2023-04-08T04:26:36;101806.97;;;4.96;100.00
47670;BME280;33408;52.062;11.722;2023-04-08T04:29:02;101808.66;;;4.96;100.00
47670;BME280;33408;52.062;11.722;2023-04-08T04:31:29;101801.97;;;5.04;100.00
47670;BME280;33408;52.062;11.722;2023-04-08T04:33:57;101818.53;;;5.17;100.00
47670;BME280;33408;52.062;11.722;2023-04-08T04:36:23;101824.91;;;4.95;100.00
47670;BME280;33408;52.062;11.722;2023-04-08T04:38:50;101828.41;;;4.98;100.00
47670;BME280;33408;52.062;11.722;2023-04-08T04:41:17;101826.75;;;5.00;100.00
47670;BME280;33408;52.062;11.722;2023-04-08T04:43:43;101830.34;;;5.08;100.00
47670;BME280;33408;52.062;11.722;2023-04-08T04:46:10;101831.84;;;4.99;100.00
47670;BME280;33408;52.062;11.722;2023-04-08T04:48:37;101836.13;;;4.98;100.00
47670;BME280;33408;52.062;11.722;2023-04-08T04:51:05;101843.13;;;5.05;100.00
47670;BME280;33408;52.062;11.722;2023-04-08T04:53:31;101837.00;;;4.99;100.00
47670;BME280;33408;52.062;11.722;2023-04-08T04:55:58;101839.63;;;5.02;100.00
47670;BME280;33408;52.062;11.722;2023-04-08T04:58:26;101841.41;;;5.04;100.00
47670;BME280;33408;52.062;11.722;2023-04-08T05:00:52;101847.09;;;4.89;100.00
47670;BME280;33408;52.062;11.722;2023-04-08T05:03:19;101842.09;;;4.97;100.00
47670;BME280;33408;52.062;11.722;2023-04-08T05:05:50;101846.50;;;5.03;100.00
47670;BME280;33408;52.062;11.722;2023-04-08T05:08:18;101853.16;;;4.93;100.00
47670;BME280;33408;52.062;11.722;2023-04-08T05:10:45;101844.72;;;5.00;100.00
47670;BME280;33408;52.062;11.722;2023-04-08T05:13:11;101846.25;;;4.92;100.00
47670;BME280;33408;52.062;11.722;2023-04-08T05:15:38;101849.06;;;5.01;100.00
47670;BME280;33408;52.062;11.722;2023-04-08T05:18:04;101847.25;;;4.99;100.00
47670;BME280;33408;52.062;11.722;2023-04-08T05:20:31;101853.06;;;4.90;100.00
47670;BME280;33408;52.062;11.722;2023-04-08T05:22:57;101856.41;;;4.86;100.00
47670;BME280;33408;52.062;11.722;2023-04-08T05:25:25;101862.03;;;5.07;100.00
47670;BME280;33408;52.062;11.722;2023-04-08T05:27:52;101857.94;;;5.16;100.00
47670;BME280;33408;52.062;11.722;2023-04-08T05:30:19;101858.59;;;5.07;100.00
47670;BME280;33408;52.062;11.722;2023-04-08T05:32:45;101870.72;;;5.13;100.00
47670;BME280;33408;52.062;11.722;2023-04-08T05:35:12;101872.25;;;5.04;100.00
47670;BME280;33408;52.062;11.722;2023-04-08T05:37:38;101879.97;;;5.04;100.00
47670;BME280;33408;52.062;11.722;2023-04-08T05:40:06;101873.88;;;5.02;100.00
47670;BME280;33408;52.062;11.722;2023-04-08T05:42:34;101883.34;;;5.03;100.00
47670;BME280;33408;52.062;11.722;2023-04-08T05:45:00;101871.53;;;5.11;100.00
47670;BME280;33408;52.062;11.722;2023-04-08T05:47:27;101873.97;;;5.05;100.00
47670;BME280;33408;52.062;11.722;2023-04-08T05:49:54;101879.28;;;5.13;100.00
47670;BME280;33408;52.062;11.722;2023-04-08T05:52:20;101882.09;;;5.24;100.00
47670;BME280;33408;52.062;11.722;2023-04-08T05:54:47;101885.28;;;5.12;100.00
47670;BME280;33408;52.062;11.722;2023-04-08T05:57:13;101888.63;;;5.09;100.00
47670;BME280;33408;52.062;11.722;2023-04-08T05:59:42;101886.47;;;5.28;100.00
47670;BME280;33408;52.062;11.722;2023-04-08T06:02:08;101881.31;;;5.26;100.00
47670;BME280;33408;52.062;11.722;2023-04-08T06:04:35;101890.50;;;5.17;100.00
47670;BME280;33408;52.062;11.722;2023-04-08T06:07:02;101892.31;;;5.21;100.00
47670;BME280;33408;52.062;11.722;2023-04-08T06:09:33;101898.94;;;5.11;100.00
47670;BME280;33408;52.062;11.722;2023-04-08T06:12:00;101906.69;;;5.13;100.00
47670;BME280;33408;52.062;11.722;2023-04-08T06:14:27;101910.97;;;5.12;100.00
47670;BME280;33408;52.062;11.722;2023-04-08T06:16:54;101911.53;;;5.00;100.00
47670;BME280;33408;52.062;11.722;2023-04-08T06:19:21;101921.91;;;5.03;100.00
47670;BME280;33408;52.062;11.722;2023-04-08T06:21:49;101920.34;;;5.10;100.00
47670;BME280;33408;52.062;11.722;2023-04-08T06:24:15;101917.72;;;5.08;100.00
47670;BME280;33408;52.062;11.722;2023-04-08T06:26:42;101921.94;;;5.05;100.00
47670;BME280;33408;52.062;11.722;2023-04-08T06:29:08;101926.47;;;5.17;100.00
47670;BME280;33408;52.062;11.722;2023-04-08T06:31:35;101921.31;;;5.15;100.00
47670;BME280;33408;52.062;11.722;2023-04-08T06:34:03;101928.28;;;5.19;100.00
47670;BME280;33408;52.062;11.722;2023-04-08T06:36:29;101923.09;;;5.18;100.00
47670;BME280;33408;52.062;11.722;2023-04-08T06:38:56;101934.34;;;5.23;100.00
47670;BME280;33408;52.062;11.722;2023-04-08T06:41:23;101925.81;;;5.24;100.00
47670;BME280;33408;52.062;11.722;2023-04-08T06:43:49;101934.31;;;5.21;100.00
47670;BME280;33408;52.062;11.722;2023-04-08T06:46:16;101934.53;;;5.30;100.00
47670;BME280;33408;52.062;11.722;2023-04-08T06:48:42;101931.19;;;5.35;100.00
47670;BME280;33408;52.062;11.722;2023-04-08T06:51:10;101938.94;;;5.36;100.00
47670;BME280;33408;52.062;11.722;2023-04-08T06:53:37;101934.56;;;5.32;100.00
47670;BME280;33408;52.062;11.722;2023-04-08T06:56:03;101937.16;;;5.34;100.00
47670;BME280;33408;52.062;11.722;2023-04-08T06:58:30;101934.09;;;5.50;100.00
47670;BME280;33408;52.062;11.722;2023-04-08T07:00:58;101941.75;;;5.47;100.00
47670;BME280;33408;52.062;11.722;2023-04-08T07:03:25;101942.81;;;5.57;100.00
47670;BME280;33408;52.062;11.722;2023-04-08T07:05:51;101940.31;;;5.60;100.00
47670;BME280;33408;52.062;11.722;2023-04-08T07:08:21;101941.47;;;5.74;100.00
47670;BME280;33408;52.062;11.722;2023-04-08T07:10:47;101936.88;;;5.59;100.00
47670;BME280;33408;52.062;11.722;2023-04-08T07:13:14;101933.09;;;5.83;100.00
47670;BME280;33408;52.062;11.722;2023-04-08T07:15:41;101931.41;;;5.85;100.00
47670;BME280;33408;52.062;11.722;2023-04-08T07:18:08;101942.56;;;5.85;100.00
47670;BME280;33408;52.062;11.722;2023-04-08T07:20:34;101949.38;;;5.83;100.00
47670;BME280;33408;52.062;11.722;2023-04-08T07:23:02;101955.56;;;5.92;100.00
47670;BME280;33408;52.062;11.722;2023-04-08T07:25:32;101967.84;;;5.64;100.00
47670;BME280;33408;52.062;11.722;2023-04-08T07:28:02;101965.50;;;5.76;100.00
47670;BME280;33408;52.062;11.722;2023-04-08T07:30:28;101972.41;;;5.77;100.00
47670;BME280;33408;52.062;11.722;2023-04-08T07:32:55;101968.38;;;5.90;100.00
47670;BME280;33408;52.062;11.722;2023-04-08T07:35:23;101984.31;;;6.13;100.00
47670;BME280;33408;52.062;11.722;2023-04-08T07:37:50;101984.94;;;6.01;100.00
47670;BME280;33408;52.062;11.722;2023-04-08T07:40:17;101980.47;;;5.93;100.00
47670;BME280;33408;52.062;11.722;2023-04-08T07:42:45;101981.34;;;5.95;100.00
47670;BME280;33408;52.062;11.722;2023-04-08T07:45:12;101976.72;;;5.78;100.00
47670;BME280;33408;52.062;11.722;2023-04-08T07:47:38;101979.41;;;5.83;100.00
47670;BME280;33408;52.062;11.722;2023-04-08T07:50:06;101979.50;;;5.89;100.00
47670;BME280;33408;52.062;11.722;2023-04-08T07:52:33;101988.63;;;5.73;100.00
47670;BME280;33408;52.062;11.722;2023-04-08T07:55:00;101981.88;;;5.78;100.00
47670;BME280;33408;52.062;11.722;2023-04-08T07:57:26;101981.09;;;5.82;100.00
47670;BME280;33408;52.062;11.722;2023-04-08T07:59:54;101983.06;;;5.94;100.00
47670;BME280;33408;52.062;11.722;2023-04-08T08:02:21;101981.66;;;6.07;100.00
47670;BME280;33408;52.062;11.722;2023-04-08T08:04:48;101981.72;;;6.10;100.00
47670;BME280;33408;52.062;11.722;2023-04-08T08:07:14;101982.56;;;6.11;100.00
47670;BME280;33408;52.062;11.722;2023-04-08T08:09:41;101985.66;;;6.37;100.00
47670;BME280;33408;52.062;11.722;2023-04-08T08:12:07;101999.94;;;6.21;100.00
47670;BME280;33408;52.062;11.722;2023-04-08T08:14:34;101992.84;;;6.09;100.00
47670;BME280;33408;52.062;11.722;2023-04-08T08:17:03;101997.34;;;6.21;100.00
47670;BME280;33408;52.062;11.722;2023-04-08T08:19:30;101990.59;;;6.26;100.00
47670;BME280;33408;52.062;11.722;2023-04-08T08:21:56;101992.75;;;6.49;100.00
47670;BME280;33408;52.062;11.722;2023-04-08T08:24:23;101993.41;;;6.38;100.00
47670;BME280;33408;52.062;11.722;2023-04-08T08:26:50;101996.44;;;6.63;100.00
47670;BME280;33408;52.062;11.722;2023-04-08T08:29:16;101999.00;;;6.17;100.00
47670;BME280;33408;52.062;11.722;2023-04-08T08:31:43;102001.41;;;6.52;100.00
47670;BME280;33408;52.062;11.722;2023-04-08T08:34:11;102008.22;;;6.50;100.00
47670;BME280;33408;52.062;11.722;2023-04-08T08:36:37;102009.78;;;6.42;100.00
47670;BME280;33408;52.062;11.722;2023-04-08T08:39:04;102009.31;;;6.63;100.00
47670;BME280;33408;52.062;11.722;2023-04-08T08:41:34;102011.06;;;6.64;100.00
47670;BME280;33408;52.062;11.722;2023-04-08T08:44:04;102015.50;;;6.71;100.00
47670;BME280;33408;52.062;11.722;2023-04-08T08:46:32;102018.53;;;6.49;100.00
47670;BME280;33408;52.062;11.722;2023-04-08T08:49:01;102031.91;;;6.77;100.00
47670;BME280;33408;52.062;11.722;2023-04-08T08:51:30;102017.69;;;6.51;100.00
47670;BME280;33408;52.062;11.722;2023-04-08T08:53:56;102023.28;;;6.76;100.00
47670;BME280;33408;52.062;11.722;2023-04-08T08:56:26;102023.22;;;6.71;100.00
47670;BME280;33408;52.062;11.722;2023-04-08T08:58:53;102023.66;;;6.96;100.00
47670;BME280;33408;52.062;11.722;2023-04-08T09:01:29;102020.56;;;7.17;100.00
47670;BME280;33408;52.062;11.722;2023-04-08T09:04:09;102026.78;;;6.78;100.00
47670;BME280;33408;52.062;11.722;2023-04-08T09:06:37;102031.47;;;7.01;100.00
47670;BME280;33408;52.062;11.722;2023-04-08T09:09:04;102044.09;;;7.37;100.00
47670;BME280;33408;52.062;11.722;2023-04-08T09:11:35;102044.41;;;10.27;100.00
47670;BME280;33408;52.062;11.722;2023-04-08T09:14:02;102057.50;;;9.13;100.00
47670;BME280;33408;52.062;11.722;2023-04-08T09:16:30;102062.34;;;8.80;100.00
47670;BME280;33408;52.062;11.722;2023-04-08T09:19:07;102058.84;;;7.44;100.00
47670;BME280;33408;52.062;11.722;2023-04-08T09:21:35;102058.94;;;8.81;100.00
47670;BME280;33408;52.062;11.722;2023-04-08T09:24:03;102070.47;;;7.76;100.00
47670;BME280;33408;52.062;11.722;2023-04-08T09:26:29;102062.59;;;7.10;100.00
47670;BME280;33408;52.062;11.722;2023-04-08T09:28:57;102076.94;;;6.96;100.00
47670;BME280;33408;52.062;11.722;2023-04-08T09:31:27;102073.25;;;6.83;100.00
47670;BME280;33408;52.062;11.722;2023-04-08T09:33:56;102075.38;;;7.04;100.00
47670;BME280;33408;52.062;11.722;2023-04-08T09:36:23;102075.03;;;6.87;100.00
47670;BME280;33408;52.062;11.722;2023-04-08T09:38:51;102073.25;;;6.83;100.00
47670;BME280;33408;52.062;11.722;2023-04-08T09:41:19;102068.94;;;6.82;100.00
47670;BME280;33408;52.062;11.722;2023-04-08T09:43:49;102079.06;;;6.72;100.00
47670;BME280;33408;52.062;11.722;2023-04-08T09:46:25;102083.31;;;6.69;100.00
47670;BME280;33408;52.062;11.722;2023-04-08T09:48:59;102077.06;;;7.03;100.00
47670;BME280;33408;52.062;11.722;2023-04-08T09:51:31;102079.66;;;6.57;100.00
47670;BME280;33408;52.062;11.722;2023-04-08T09:54:02;102073.59;;;7.01;100.00
47670;BME280;33408;52.062;11.722;2023-04-08T09:56:41;102087.06;;;6.86;100.00
47670;BME280;33408;52.062;11.722;2023-04-08T09:59:13;102076.78;;;6.88;100.00
47670;BME280;33408;52.062;11.722;2023-04-08T10:01:44;102083.06;;;7.02;100.00
47670;BME280;33408;52.062;11.722;2023-04-08T10:04:14;102081.06;;;6.87;100.00
47670;BME280;33408;52.062;11.722;2023-04-08T10:06:41;102093.91;;;6.86;100.00
47670;BME280;33408;52.062;11.722;2023-04-08T10:09:09;102092.63;;;7.09;100.00
47670;BME280;33408;52.062;11.722;2023-04-08T10:11:37;102092.88;;;7.22;100.00
47670;BME280;33408;52.062;11.722;2023-04-08T10:14:03;102085.19;;;7.25;100.00
47670;BME280;33408;52.062;11.722;2023-04-08T10:16:31;102089.09;;;7.03;100.00
47670;BME280;33408;52.062;11.722;2023-04-08T10:19:00;102087.72;;;7.22;100.00
47670;BME280;33408;52.062;11.722;2023-04-08T10:21:34;102097.97;;;7.19;100.00
47670;BME280;33408;52.062;11.722;2023-04-08T10:24:01;102090.50;;;7.34;100.00
47670;BME280;33408;52.062;11.722;2023-04-08T10:26:37;102092.34;;;6.92;100.00
47670;BME280;33408;52.062;11.722;2023-04-08T10:32:07;102095.25;;;7.11;100.00
47670;BME280;33408;52.062;11.722;2023-04-08T10:34:33;102090.94;;;7.10;100.00
47670;BME280;33408;52.062;11.722;2023-04-08T10:37:00;102092.59;;;7.08;100.00
47670;BME280;33408;52.062;11.722;2023-04-08T10:39:29;102094.59;;;7.21;100.00
47670;BME280;33408;52.062;11.722;2023-04-08T10:41:57;102094.47;;;7.15;100.00
47670;BME280;33408;52.062;11.722;2023-04-08T10:44:26;102098.34;;;6.91;100.00
47670;BME280;33408;52.062;11.722;2023-04-08T10:46:53;102095.03;;;7.00;100.00
47670;BME280;33408;52.062;11.722;2023-04-08T10:49:20;102101.00;;;6.96;100.00
47670;BME280;33408;52.062;11.722;2023-04-08T10:51:48;102100.03;;;6.89;100.00
47670;BME280;33408;52.062;11.722;2023-04-08T10:54:16;102105.88;;;6.82;100.00
47670;BME280;33408;52.062;11.722;2023-04-08T10:56:44;102102.91;;;7.08;100.00
47670;BME280;33408;52.062;11.722;2023-04-08T10:59:14;102103.91;;;7.15;100.00
47670;BME280;33408;52.062;11.722;2023-04-08T11:01:45;102102.38;;;7.26;100.00
47670;BME280;33408;52.062;11.722;2023-04-08T11:04:13;102108.78;;;7.48;100.00
47670;BME280;33408;52.062;11.722;2023-04-08T11:06:41;102100.28;;;7.54;100.00
47670;BME280;33408;52.062;11.722;2023-04-08T11:09:08;102097.59;;;8.04;100.00
47670;BME280;33408;52.062;11.722;2023-04-08T11:11:36;102089.91;;;8.10;100.00
47670;BME280;33408;52.062;11.722;2023-04-08T11:14:03;102093.53;;;8.21;100.00
47670;BME280;33408;52.062;11.722;2023-04-08T11:16:32;102091.59;;;8.75;100.00
47670;BME280;33408;52.062;11.722;2023-04-08T11:19:01;102090.25;;;8.36;100.00
47670;BME280;33408;52.062;11.722;2023-04-08T11:21:29;102092.75;;;8.30;100.00
47670;BME280;33408;52.062;11.722;2023-04-08T11:23:56;102085.47;;;8.66;100.00
47670;BME280;33408;52.062;11.722;2023-04-08T11:26:24;102091.03;;;9.03;100.00
47670;BME280;33408;52.062;11.722;2023-04-08T11:28:51;102095.53;;;9.24;100.00
47670;BME280;33408;52.062;11.722;2023-04-08T11:31:19;102094.09;;;8.69;100.00
47670;BME280;33408;52.062;11.722;2023-04-08T11:33:51;102097.03;;;8.28;100.00
47670;BME280;33408;52.062;11.722;2023-04-08T11:36:18;102101.56;;;7.82;100.00
47670;BME280;33408;52.062;11.722;2023-04-08T11:38:46;102100.41;;;8.22;100.00
47670;BME280;33408;52.062;11.722;2023-04-08T11:41:13;102105.00;;;10.51;100.00
47670;BME280;33408;52.062;11.722;2023-04-08T11:43:50;102100.00;;;11.26;100.00
47670;BME280;33408;52.062;11.722;2023-04-08T11:46:16;102086.78;;;12.54;100.00
47670;BME280;33408;52.062;11.722;2023-04-08T11:49:00;102091.00;;;10.13;100.00
47670;BME280;33408;52.062;11.722;2023-04-08T11:51:27;102088.13;;;9.68;100.00
47670;BME280;33408;52.062;11.722;2023-04-08T11:53:54;102086.00;;;9.17;100.00
47670;BME280;33408;52.062;11.722;2023-04-08T11:56:21;102087.28;;;9.70;100.00
47670;BME280;33408;52.062;11.722;2023-04-08T11:58:49;102084.31;;;9.22;100.00
47670;BME280;33408;52.062;11.722;2023-04-08T12:01:16;102080.53;;;8.87;100.00
47670;BME280;33408;52.062;11.722;2023-04-08T12:03:57;102082.28;;;8.91;100.00
47670;BME280;33408;52.062;11.722;2023-04-08T12:06:24;102082.63;;;9.27;100.00
47670;BME280;33408;52.062;11.722;2023-04-08T12:08:52;102080.69;;;9.04;100.00
47670;BME280;33408;52.062;11.722;2023-04-08T12:11:19;102084.19;;;9.09;100.00
47670;BME280;33408;52.062;11.722;2023-04-08T12:13:45;102096.19;;;9.01;100.00
47670;BME280;33408;52.062;11.722;2023-04-08T12:16:13;102090.34;;;9.24;100.00
47670;BME280;33408;52.062;11.722;2023-04-08T12:18:40;102089.34;;;9.09;100.00
47670;BME280;33408;52.062;11.722;2023-04-08T12:21:08;102088.47;;;9.06;100.00
47670;BME280;33408;52.062;11.722;2023-04-08T12:23:35;102092.19;;;9.36;100.00
47670;BME280;33408;52.062;11.722;2023-04-08T12:26:01;102089.44;;;9.17;100.00
47670;BME280;33408;52.062;11.722;2023-04-08T12:28:28;102099.72;;;9.12;100.00
47670;BME280;33408;52.062;11.722;2023-04-08T12:30:55;102097.72;;;8.84;100.00
47670;BME280;33408;52.062;11.722;2023-04-08T12:33:22;102099.56;;;8.94;100.00
47670;BME280;33408;52.062;11.722;2023-04-08T12:35:48;102100.53;;;9.05;100.00
47670;BME280;33408;52.062;11.722;2023-04-08T12:38:16;102100.25;;;8.78;100.00
47670;BME280;33408;52.062;11.722;2023-04-08T12:40:43;102099.47;;;8.85;100.00
47670;BME280;33408;52.062;11.722;2023-04-08T12:43:09;102099.31;;;8.72;100.00
47670;BME280;33408;52.062;11.722;2023-04-08T12:45:36;102094.88;;;8.59;100.00